Time;durP1;ratioP1;P1;durP2;ratioP2;P2;SDS_P1;SDS_P2;PMS_P1;PMS_P2;Temp;Humidity;BMP_temperature;BMP_pressure;BME280_temperature;BME280_humidity;BME280_pressure;Samples;Min_cycle;Max_cycle;Signal;HPM_P1;HPM_P2
2021/07/16 00:02:05;;;;;;;36.45;13.95;;;18.10;99.90;;;;;;5076426;28;20178;-81
2021/07/16 00:04:31;;;;;;;28.35;13.25;;;18.10;99.90;;;;;;5076566;28;20205;-81
2021/07/16 00:06:57;;;;;;;29.38;13.73;;;18.00;99.90;;;;;;5074913;28;20178;-82
2021/07/16 00:09:23;;;;;;;28.65;12.73;;;18.00;99.90;;;;;;5076813;28;20170;-81
2021/07/16 00:11:49;;;;;;;27.25;13.85;;;18.00;99.90;;;;;;5059474;28;20227;-81
2021/07/16 00:14:14;;;;;;;26.35;13.27;;;18.00;99.90;;;;;;5056125;28;20190;-81
2021/07/16 00:16:40;;;;;;;27.70;13.55;;;17.90;99.90;;;;;;5057588;28;20193;-81
2021/07/16 00:19:06;;;;;;;36.67;14.82;;;17.90;99.90;;;;;;5073928;28;20193;-82
2021/07/16 00:21:32;;;;;;;30.15;14.82;;;18.00;99.90;;;;;;5093330;28;20170;-81
2021/07/16 00:23:58;;;;;;;28.27;14.13;;;18.00;99.90;;;;;;5081347;28;20260;-81
2021/07/16 00:26:24;;;;;;;27.80;14.40;;;18.00;99.90;;;;;;5056934;28;20178;-81
2021/07/16 00:28:50;;;;;;;28.60;13.93;;;18.00;99.90;;;;;;5057941;28;20186;-81
2021/07/16 00:31:15;;;;;;;31.85;13.18;;;17.90;99.90;;;;;;5073972;28;20178;-80
2021/07/16 00:33:41;;;;;;;28.33;14.35;;;17.80;99.90;;;;;;5075447;28;20190;-84
2021/07/16 00:36:07;;;;;;;20.38;14.00;;;17.80;99.90;;;;;;5056724;28;20177;-81
2021/07/16 00:38:33;;;;;;;28.30;14.15;;;17.80;99.90;;;;;;5047379;28;20194;-89
2021/07/16 00:40:59;;;;;;;24.42;14.10;;;17.80;99.90;;;;;;5055971;28;20182;-80
2021/07/16 00:43:24;;;;;;;22.48;13.57;;;17.80;99.90;;;;;;5073809;28;20163;-81
2021/07/16 00:45:51;;;;;;;24.85;14.35;;;17.90;99.90;;;;;;5073754;28;20198;-81
2021/07/16 00:48:17;;;;;;;33.95;15.07;;;17.90;99.90;;;;;;5057239;28;20166;-81
2021/07/16 00:50:43;;;;;;;27.63;14.40;;;17.90;99.90;;;;;;5073698;28;20178;-81
2021/07/16 00:53:10;;;;;;;20.80;13.70;;;17.90;99.90;;;;;;5055621;28;20592;-81
2021/07/16 00:55:37;;;;;;;17.77;13.70;;;17.80;99.90;;;;;;5073378;28;20538;-81
2021/07/16 00:58:03;;;;;;;23.30;14.10;;;17.90;99.90;;;;;;5055307;28;20183;-81
2021/07/16 01:00:29;;;;;;;20.10;13.18;;;17.90;99.90;;;;;;5088539;28;20168;-81
2021/07/16 01:02:55;;;;;;;17.45;13.05;;;18.00;99.90;;;;;;5075082;28;20646;-82
2021/07/16 01:05:22;;;;;;;21.98;14.35;;;18.00;99.90;;;;;;5093054;28;20194;-81
2021/07/16 01:07:50;;;;;;;19.45;12.63;;;18.10;99.90;;;;;;5075516;28;20182;-81
2021/07/16 01:10:17;;;;;;;20.75;14.32;;;18.10;99.90;;;;;;5093389;28;20166;-81
2021/07/16 01:12:44;;;;;;;23.83;15.00;;;18.20;99.90;;;;;;5075354;28;20632;-82
2021/07/16 01:15:14;;;;;;;25.45;14.77;;;18.30;99.90;;;;;;5074748;28;20526;-81
2021/07/16 01:17:40;;;;;;;19.80;15.27;;;18.30;99.90;;;;;;5075204;28;20170;-81
2021/07/16 01:20:11;;;;;;;30.75;15.18;;;18.40;99.90;;;;;;5073697;28;20174;-81
2021/07/16 01:22:39;;;;;;;22.67;14.75;;;18.40;99.90;;;;;;5093175;28;20162;-81
2021/07/16 01:25:06;;;;;;;26.27;14.85;;;18.40;99.90;;;;;;5091484;28;20660;-81
2021/07/16 01:27:33;;;;;;;31.65;14.82;;;18.40;99.90;;;;;;5093671;28;20628;-80
2021/07/16 01:30:01;;;;;;;31.60;14.55;;;18.50;99.90;;;;;;5093485;28;20624;-81
2021/07/16 01:32:27;;;;;;;30.13;15.30;;;18.40;99.90;;;;;;5090450;28;20559;-81
2021/07/16 01:34:53;;;;;;;29.88;15.30;;;18.40;99.90;;;;;;5073963;28;20178;-81
2021/07/16 01:37:20;;;;;;;22.50;14.40;;;18.50;99.90;;;;;;5091710;28;20185;-81
2021/07/16 01:39:45;;;;;;;32.15;15.13;;;18.50;99.90;;;;;;5075346;28;20632;-80
2021/07/16 01:42:12;;;;;;;23.83;14.98;;;18.50;99.90;;;;;;5075242;28;20177;-81
2021/07/16 01:44:40;;;;;;;21.02;14.52;;;18.50;99.90;;;;;;5093707;28;20212;-81
2021/07/16 01:47:06;;;;;;;21.55;14.35;;;18.40;99.90;;;;;;5070272;28;20174;-81
2021/07/16 01:49:32;;;;;;;19.25;13.30;;;18.50;99.90;;;;;;5076861;28;20184;-81
2021/07/16 01:51:59;;;;;;;29.98;15.23;;;18.40;99.90;;;;;;5059180;28;20210;-82
2021/07/16 01:54:24;;;;;;;30.10;14.73;;;18.40;99.90;;;;;;5059021;28;20167;-81
2021/07/16 01:56:51;;;;;;;21.95;14.30;;;18.40;99.90;;;;;;5080215;28;20191;-81
2021/07/16 01:59:17;;;;;;;27.40;13.32;;;18.30;99.90;;;;;;5077164;28;20200;-81
2021/07/16 02:01:42;;;;;;;29.38;14.30;;;18.30;99.90;;;;;;5062953;28;20202;-82
2021/07/16 02:04:08;;;;;;;32.13;15.07;;;18.10;99.90;;;;;;5078038;28;20197;-81
2021/07/16 02:06:35;;;;;;;33.17;14.23;;;18.00;99.90;;;;;;5096121;28;20245;-81
2021/07/16 02:09:01;;;;;;;29.35;14.05;;;17.90;99.90;;;;;;5080609;28;20179;-81
2021/07/16 02:11:27;;;;;;;27.73;14.20;;;17.90;99.90;;;;;;5058757;28;20178;-80
2021/07/16 02:13:53;;;;;;;42.72;15.18;;;17.90;99.90;;;;;;5058941;28;20173;-80
2021/07/16 02:16:19;;;;;;;32.20;14.50;;;17.90;99.90;;;;;;5058592;28;20250;-81
2021/07/16 02:18:50;;;;;;;36.35;15.27;;;17.90;99.90;;;;;;5077530;28;20261;-84
2021/07/16 02:21:16;;;;;;;32.92;15.02;;;17.90;99.90;;;;;;5076446;28;20175;-82
2021/07/16 02:23:42;;;;;;;51.10;17.52;;;18.00;99.90;;;;;;5041923;28;20531;-81
2021/07/16 02:26:08;;;;;;;39.05;15.35;;;18.00;99.90;;;;;;5058449;28;20187;-81
2021/07/16 02:28:33;;;;;;;42.72;15.07;;;17.90;99.90;;;;;;5080707;28;20169;-81
2021/07/16 02:31:01;;;;;;;47.38;17.02;;;17.90;99.90;;;;;;5096763;28;20639;-81
2021/07/16 02:33:27;;;;;;;47.65;15.38;;;17.80;99.90;;;;;;5079071;28;20189;-80
2021/07/16 02:35:53;;;;;;;39.75;16.20;;;17.80;99.90;;;;;;5077919;28;20231;-82
2021/07/16 02:38:21;;;;;;;42.13;16.50;;;17.80;99.90;;;;;;5096395;28;20158;-81
2021/07/16 02:40:48;;;;;;;44.38;16.50;;;17.80;99.90;;;;;;5090917;28;20227;-81
2021/07/16 02:43:14;;;;;;;40.95;17.52;;;17.80;99.90;;;;;;5096668;28;20166;-81
2021/07/16 02:45:41;;;;;;;42.40;16.10;;;17.90;99.90;;;;;;5077819;28;20198;-81
2021/07/16 02:48:06;;;;;;;43.45;16.65;;;17.80;99.90;;;;;;5078078;28;20166;-81
2021/07/16 02:50:36;;;;;;;43.95;16.50;;;17.80;99.90;;;;;;5068034;28;20187;-81
2021/07/16 02:53:02;;;;;;;41.65;15.98;;;17.70;99.90;;;;;;5057975;28;20208;-81
2021/07/16 02:55:28;;;;;;;36.63;16.95;;;17.60;99.90;;;;;;5075729;28;20178;-81
2021/07/16 02:57:53;;;;;;;44.70;15.70;;;17.60;99.90;;;;;;5042682;28;20194;-82
2021/07/16 03:00:23;;;;;;;44.65;18.33;;;17.60;99.90;;;;;;5059544;28;20182;-81
2021/07/16 03:02:50;;;;;;;44.33;16.75;;;17.60;99.90;;;;;;5096044;28;20162;-81
2021/07/16 03:05:21;;;;;;;34.67;15.60;;;17.60;99.90;;;;;;5077222;28;20194;-81
2021/07/16 03:07:48;;;;;;;39.22;15.95;;;17.60;99.90;;;;;;5096008;28;20616;-81
2021/07/16 03:10:34;;;;;;;59.15;17.25;;;17.60;99.90;;;;;;5095830;28;20162;-82
2021/07/16 03:13:02;;;;;;;44.15;16.77;;;17.50;99.90;;;;;;5095544;28;20184;-82
2021/07/16 03:15:28;;;;;;;40.17;16.65;;;17.50;99.90;;;;;;5095720;28;20251;-81
2021/07/16 03:17:54;;;;;;;53.30;16.98;;;17.50;99.90;;;;;;5077480;28;20673;-81
2021/07/16 03:20:26;;;;;;;48.05;17.70;;;17.50;99.90;;;;;;5077583;28;20177;-81
2021/07/16 03:22:53;;;;;;;41.67;16.70;;;17.50;99.90;;;;;;5093848;28;20172;-81
2021/07/16 03:25:20;;;;;;;51.08;16.20;;;17.60;99.90;;;;;;5077283;28;20622;-81
2021/07/16 03:27:47;;;;;;;31.63;15.43;;;17.50;99.90;;;;;;5074823;28;20276;-81
2021/07/16 03:30:16;;;;;;;40.28;17.02;;;17.40;99.90;;;;;;5075060;28;20171;-82
2021/07/16 03:32:41;;;;;;;47.97;16.77;;;17.40;99.90;;;;;;5079674;28;20186;-81
2021/07/16 03:35:09;;;;;;;38.92;15.75;;;17.40;99.90;;;;;;5095338;28;20173;-81
2021/07/16 03:37:36;;;;;;;45.25;16.40;;;17.40;99.90;;;;;;5077359;28;20249;-81
2021/07/16 03:40:03;;;;;;;37.85;15.20;;;17.40;99.90;;;;;;5076958;28;20170;-81
2021/07/16 03:42:29;;;;;;;47.67;15.95;;;17.40;99.90;;;;;;5077000;28;20214;-81
2021/07/16 03:44:54;;;;;;;39.40;16.70;;;17.50;99.90;;;;;;5093496;28;20193;-82
2021/07/16 03:47:20;;;;;;;33.70;15.13;;;17.50;99.90;;;;;;5095055;28;20215;-81
2021/07/16 03:49:46;;;;;;;34.17;15.15;;;17.50;99.90;;;;;;5060303;28;20529;-81
2021/07/16 03:52:12;;;;;;;49.80;16.05;;;17.50;99.90;;;;;;5094716;28;20190;-81
2021/07/16 03:54:38;;;;;;;37.03;15.27;;;17.50;99.90;;;;;;5068681;28;20213;-82
2021/07/16 03:57:05;;;;;;;34.42;14.38;;;17.40;99.90;;;;;;5056632;28;20210;-82
2021/07/16 03:59:31;;;;;;;36.08;15.55;;;17.40;99.90;;;;;;5071805;28;20578;-81
2021/07/16 04:01:58;;;;;;;38.67;15.60;;;17.40;99.90;;;;;;5093871;28;20177;-82
2021/07/16 04:04:24;;;;;;;41.75;16.10;;;17.40;99.90;;;;;;5078236;28;20194;-81
2021/07/16 04:06:52;;;;;;;35.65;15.70;;;17.40;99.90;;;;;;5094736;28;20185;-81
2021/07/16 04:09:28;;;;;;;49.22;15.13;;;17.40;99.90;;;;;;5094243;28;20195;-82
2021/07/16 04:12:06;;;;;;;44.75;15.20;;;17.40;99.90;;;;;;5071545;28;20178;-81
2021/07/16 04:14:40;;;;;;;37.97;14.75;;;17.30;99.90;;;;;;5074269;28;20166;-82
2021/07/16 04:17:13;;;;;;;41.25;15.57;;;17.30;99.90;;;;;;5094070;28;20185;-81
2021/07/16 04:19:39;;;;;;;31.85;15.02;;;17.30;99.90;;;;;;5094495;28;20214;-83
2021/07/16 04:22:06;;;;;;;34.40;15.23;;;17.30;99.90;;;;;;5059478;28;20161;-81
2021/07/16 04:24:34;;;;;;;45.78;16.55;;;17.30;99.90;;;;;;5076500;28;20536;-81
2021/07/16 04:27:01;;;;;;;36.00;15.57;;;17.40;99.90;;;;;;5092725;28;20186;-82
2021/07/16 04:29:26;;;;;;;27.08;14.57;;;17.40;99.90;;;;;;5076099;28;20252;-84
2021/07/16 04:31:52;;;;;;;43.00;14.63;;;17.40;99.90;;;;;;5055853;28;20202;-82
2021/07/16 04:34:18;;;;;;;29.23;14.70;;;17.30;99.90;;;;;;5074159;28;20189;-82
2021/07/16 04:36:45;;;;;;;29.00;14.32;;;17.30;99.90;;;;;;5057092;28;20178;-81
2021/07/16 04:39:11;;;;;;;39.22;13.50;;;17.40;99.90;;;;;;5039600;28;20174;-82
2021/07/16 04:41:37;;;;;;;46.10;14.68;;;17.50;99.90;;;;;;5073822;28;20633;-82
2021/07/16 04:44:03;;;;;;;37.58;13.73;;;17.50;99.90;;;;;;5048897;28;20178;-82
2021/07/16 04:46:28;;;;;;;37.92;14.75;;;17.60;99.90;;;;;;5083254;28;20193;-82
2021/07/16 04:48:57;;;;;;;26.55;11.82;;;17.60;99.90;;;;;;5073761;28;20182;-82
2021/07/16 04:51:26;;;;;;;33.65;13.27;;;17.70;99.90;;;;;;5039743;28;20175;-81
2021/07/16 04:53:55;;;;;;;41.47;13.57;;;17.70;99.90;;;;;;5073670;28;20249;-85
2021/07/16 04:56:22;;;;;;;34.83;12.52;;;17.80;99.90;;;;;;5074558;28;20177;-82
2021/07/16 04:58:48;;;;;;;24.67;12.82;;;17.80;99.90;;;;;;5067066;28;20211;-82
2021/07/16 05:01:14;;;;;;;36.20;13.10;;;17.80;99.90;;;;;;5074874;28;20697;-81
2021/07/16 05:03:40;;;;;;;25.55;12.60;;;17.80;99.90;;;;;;5094086;28;20166;-84
2021/07/16 05:06:06;;;;;;;34.03;13.25;;;17.90;99.90;;;;;;5058789;28;20606;-82
2021/07/16 05:08:31;;;;;;;29.48;12.77;;;17.90;99.90;;;;;;5057714;28;20659;-82
2021/07/16 05:10:57;;;;;;;27.25;13.02;;;18.00;99.90;;;;;;5059125;28;20170;-81
2021/07/16 05:13:25;;;;;;;32.90;12.20;;;18.00;99.90;;;;;;5058731;28;20170;-81
2021/07/16 05:15:51;;;;;;;22.73;11.45;;;18.00;99.90;;;;;;5027336;28;20182;-80
2021/07/16 05:18:17;;;;;;;23.27;11.80;;;18.00;99.90;;;;;;5056504;28;20239;-81
2021/07/16 05:20:43;;;;;;;26.58;11.50;;;18.00;99.90;;;;;;5054737;28;20171;-81
2021/07/16 05:23:09;;;;;;;35.33;12.82;;;18.00;99.90;;;;;;5055647;28;20613;-81
2021/07/16 05:25:35;;;;;;;27.90;12.52;;;18.10;99.90;;;;;;5073012;28;20201;-81
2021/07/16 05:28:01;;;;;;;28.13;11.93;;;18.10;99.90;;;;;;5058834;28;20174;-81
2021/07/16 05:30:26;;;;;;;26.45;11.52;;;18.10;99.90;;;;;;5066250;28;20179;-81
2021/07/16 05:32:52;;;;;;;28.30;11.18;;;18.20;99.90;;;;;;5073169;28;20205;-81
2021/07/16 05:35:20;;;;;;;23.30;11.40;;;18.20;99.90;;;;;;5038696;28;20705;-82
2021/07/16 05:37:47;;;;;;;27.00;11.35;;;18.30;99.90;;;;;;5039190;28;20526;-81
2021/07/16 05:40:14;;;;;;;20.92;11.27;;;18.30;99.90;;;;;;5085571;28;20227;-82
2021/07/16 05:42:39;;;;;;;29.10;12.55;;;18.30;99.90;;;;;;5074954;28;20170;-81
2021/07/16 05:45:06;;;;;;;25.52;11.77;;;18.40;99.90;;;;;;5093265;28;20665;-81
2021/07/16 05:47:32;;;;;;;24.70;10.95;;;18.30;99.90;;;;;;5075307;28;20173;-81
2021/07/16 05:49:58;;;;;;;25.17;10.45;;;18.30;99.90;;;;;;5073575;28;20174;-82
2021/07/16 05:52:24;;;;;;;29.42;11.35;;;18.30;99.90;;;;;;5075445;28;20240;-82
2021/07/16 05:54:51;;;;;;;20.63;9.48;;;18.40;99.90;;;;;;5075155;28;20192;-81
2021/07/16 05:57:17;;;;;;;20.35;9.07;;;18.50;99.90;;;;;;5091130;28;20277;-81
2021/07/16 05:59:43;;;;;;;22.75;9.75;;;18.40;99.90;;;;;;5065293;28;20379;-82
2021/07/16 06:02:09;;;;;;;28.98;10.15;;;18.50;99.90;;;;;;5074884;28;20184;-82
2021/07/16 06:04:35;;;;;;;27.20;9.32;;;18.60;99.90;;;;;;5075279;28;20209;-82
2021/07/16 06:07:01;;;;;;;30.30;9.80;;;18.70;99.90;;;;;;5093181;28;20227;-81
2021/07/16 06:09:27;;;;;;;26.73;9.38;;;18.80;99.90;;;;;;5058260;28;20174;-81
2021/07/16 06:11:52;;;;;;;24.50;10.20;;;18.70;99.90;;;;;;5091395;28;20181;-81
2021/07/16 06:14:18;;;;;;;26.00;10.57;;;18.70;99.90;;;;;;5074838;28;20182;-81
2021/07/16 06:16:45;;;;;;;26.90;9.32;;;18.80;99.90;;;;;;5074909;28;20174;-82
2021/07/16 06:19:11;;;;;;;28.52;8.48;;;18.90;99.90;;;;;;5074756;28;20178;-81
2021/07/16 06:21:36;;;;;;;18.88;8.40;;;18.90;99.90;;;;;;5056440;28;20648;-81
2021/07/16 06:24:02;;;;;;;19.50;7.97;;;19.00;99.90;;;;;;5074520;28;20185;-82
2021/07/16 06:26:30;;;;;;;21.25;8.02;;;19.10;99.90;;;;;;5068291;28;20629;-81
2021/07/16 06:28:56;;;;;;;21.63;8.05;;;19.10;99.90;;;;;;5067976;28;20178;-81
2021/07/16 06:31:21;;;;;;;27.90;8.27;;;19.20;99.90;;;;;;5094048;28;20170;-82
2021/07/16 06:33:47;;;;;;;28.33;7.88;;;19.20;99.90;;;;;;5076788;28;20166;-82
2021/07/16 06:36:12;;;;;;;25.98;7.85;;;19.30;99.90;;;;;;5096202;28;20166;-81
2021/07/16 06:38:38;;;;;;;23.33;7.22;;;19.40;99.90;;;;;;5078672;28;20249;-82
2021/07/16 06:41:04;;;;;;;30.60;7.65;;;19.40;99.90;;;;;;5061779;28;20253;-81
2021/07/16 06:43:30;;;;;;;16.17;6.20;;;19.50;99.90;;;;;;5036994;28;20218;-82
2021/07/16 06:45:55;;;;;;;18.27;6.95;;;19.50;99.90;;;;;;5041617;28;20556;-82
2021/07/16 06:48:21;;;;;;;25.52;7.47;;;19.50;99.90;;;;;;5041417;28;20180;-81
2021/07/16 06:50:47;;;;;;;19.63;6.85;;;19.50;99.90;;;;;;5057996;28;20273;-82
2021/07/16 06:53:12;;;;;;;20.00;6.95;;;19.50;99.90;;;;;;5041489;28;20167;-81
2021/07/16 06:55:38;;;;;;;25.60;6.10;;;19.50;99.90;;;;;;5058031;28;20174;-81
2021/07/16 06:58:04;;;;;;;18.02;5.97;;;19.50;99.90;;;;;;5063119;28;20673;-81
2021/07/16 07:00:31;;;;;;;25.67;6.43;;;19.70;99.90;;;;;;5077610;28;20188;-80
2021/07/16 07:02:57;;;;;;;22.63;6.88;;;19.90;99.90;;;;;;5057579;28;20178;-81
2021/07/16 07:05:25;;;;;;;20.17;5.70;;;20.00;99.90;;;;;;5057911;28;20624;-82
2021/07/16 07:07:51;;;;;;;14.07;5.57;;;20.10;99.90;;;;;;5075652;28;20183;-80
2021/07/16 07:10:17;;;;;;;23.45;6.07;;;20.10;99.90;;;;;;5075611;28;20171;-81
2021/07/16 07:12:44;;;;;;;25.52;6.30;;;20.20;99.90;;;;;;5092511;28;20307;-81
2021/07/16 07:15:11;;;;;;;18.27;5.65;;;20.10;99.90;;;;;;5075854;28;20540;-83
2021/07/16 07:17:37;;;;;;;20.00;5.65;;;20.10;99.90;;;;;;5095474;28;20558;-82
2021/07/16 07:20:04;;;;;;;16.27;5.60;;;20.20;99.90;;;;;;5077582;28;20177;-82
2021/07/16 07:22:30;;;;;;;20.45;5.68;;;20.30;99.90;;;;;;5060493;28;20170;-81
2021/07/16 07:24:56;;;;;;;23.30;6.00;;;20.40;99.90;;;;;;5051189;28;20203;-82
2021/07/16 07:27:21;;;;;;;18.70;5.28;;;20.40;99.90;;;;;;5057431;28;20647;-82
2021/07/16 07:29:47;;;;;;;35.88;5.72;;;20.30;99.90;;;;;;5072220;28;20185;-82
2021/07/16 07:32:13;;;;;;;23.00;5.10;;;20.40;99.90;;;;;;5057506;28;20651;-82
2021/07/16 07:34:39;;;;;;;27.33;5.57;;;20.30;99.90;;;;;;5072693;28;20572;-82
2021/07/16 07:37:05;;;;;;;25.38;5.60;;;20.40;99.90;;;;;;5060865;28;20171;-82
2021/07/16 07:39:31;;;;;;;23.17;5.78;;;20.50;99.90;;;;;;5060448;28;20566;-82
2021/07/16 07:41:57;;;;;;;16.80;6.00;;;20.80;99.90;;;;;;5095170;28;20245;-81
2021/07/16 07:44:23;;;;;;;17.92;4.90;;;21.00;99.90;;;;;;5076371;28;20678;-81
2021/07/16 07:46:49;;;;;;;16.83;5.10;;;21.20;99.90;;;;;;5063762;28;20641;-83
2021/07/16 07:49:15;;;;;;;19.92;5.60;;;21.40;99.90;;;;;;5074892;28;20166;-81
2021/07/16 07:51:42;;;;;;;20.25;6.35;;;21.40;99.90;;;;;;5074783;28;20307;-81
2021/07/16 07:54:08;;;;;;;14.38;4.65;;;21.30;99.90;;;;;;5074641;28;20188;-80
2021/07/16 07:56:34;;;;;;;19.10;5.90;;;21.40;99.90;;;;;;5080974;28;20166;-80
2021/07/16 07:59:02;;;;;;;17.83;5.03;;;21.40;99.90;;;;;;5095009;28;20505;-81
2021/07/16 08:01:28;;;;;;;21.95;4.90;;;21.40;99.90;;;;;;5075006;28;20758;-82
2021/07/16 08:03:54;;;;;;;23.85;5.57;;;21.60;99.90;;;;;;5057253;28;20257;-82
2021/07/16 08:06:19;;;;;;;20.98;4.97;;;21.60;99.90;;;;;;5059756;28;20182;-82
2021/07/16 08:08:45;;;;;;;20.33;5.40;;;21.70;99.90;;;;;;5074310;28;20536;-80
2021/07/16 08:11:12;;;;;;;17.52;4.45;;;21.50;99.90;;;;;;5032679;28;20214;-79
2021/07/16 08:13:37;;;;;;;18.35;4.55;;;21.50;99.90;;;;;;5070922;28;20201;-81
2021/07/16 08:16:04;;;;;;;22.35;4.68;;;21.60;99.90;;;;;;5094335;28;20177;-81
2021/07/16 08:18:29;;;;;;;18.83;4.93;;;21.50;99.90;;;;;;5093733;28;20580;-81
2021/07/16 08:20:56;;;;;;;25.92;5.00;;;21.20;99.90;;;;;;5074773;28;20206;-80
2021/07/16 08:23:22;;;;;;;20.40;5.47;;;21.00;99.90;;;;;;5063621;28;20240;-81
2021/07/16 08:25:47;;;;;;;21.35;5.32;;;20.90;99.90;;;;;;5067431;28;20210;-81
2021/07/16 08:28:13;;;;;;;17.85;4.80;;;21.00;99.90;;;;;;5063519;28;20236;-83
2021/07/16 08:30:39;;;;;;;22.20;4.90;;;20.80;99.90;;;;;;5080070;28;20166;-82
2021/07/16 08:33:05;;;;;;;12.27;4.07;;;20.50;99.90;;;;;;5075350;28;20209;-76
2021/07/16 08:35:31;;;;;;;15.60;4.53;;;20.50;99.90;;;;;;5056291;28;20601;-76
2021/07/16 08:37:57;;;;;;;15.65;4.35;;;20.20;99.90;;;;;;5040777;28;20163;-79
2021/07/16 08:40:23;;;;;;;25.10;5.05;;;20.20;99.90;;;;;;5060420;28;20656;-79
2021/07/16 08:42:49;;;;;;;16.75;4.97;;;20.20;99.90;;;;;;5039006;28;20312;-78
2021/07/16 08:45:15;;;;;;;19.35;5.13;;;20.40;99.90;;;;;;5057438;28;20676;-75
2021/07/16 08:47:42;;;;;;;29.40;5.65;;;20.80;99.90;;;;;;5039131;28;20190;-78
2021/07/16 08:50:10;;;;;;;22.58;4.60;;;21.10;99.90;;;;;;5055387;28;20202;-79
2021/07/16 08:52:38;;;;;;;20.80;4.43;;;21.40;99.90;;;;;;5055716;28;20227;-78
2021/07/16 08:55:04;;;;;;;29.88;5.85;;;21.20;99.90;;;;;;5074827;28;20179;-79
2021/07/16 08:57:31;;;;;;;17.83;4.22;;;20.80;99.90;;;;;;5093191;28;20216;-83
2021/07/16 08:59:57;;;;;;;17.58;4.53;;;20.70;99.90;;;;;;5055541;28;20189;-79
2021/07/16 09:02:27;;;;;;;23.27;4.35;;;20.70;99.90;;;;;;5065957;28;20188;-80
2021/07/16 09:04:58;;;;;;;18.38;4.47;;;20.60;99.90;;;;;;5074842;28;20212;-86
2021/07/16 09:07:24;;;;;;;22.55;5.45;;;20.40;99.90;;;;;;5075889;28;20171;-80
2021/07/16 09:09:49;;;;;;;21.95;5.22;;;20.30;99.90;;;;;;5045204;28;20187;-80
2021/07/16 09:12:15;;;;;;;21.63;4.47;;;20.30;99.90;;;;;;5055122;28;20167;-80
2021/07/16 09:14:41;;;;;;;20.10;4.55;;;20.40;99.90;;;;;;5073816;28;20197;-80
2021/07/16 09:17:09;;;;;;;15.75;4.22;;;20.50;99.90;;;;;;5074672;28;20171;-81
2021/07/16 09:19:47;;;;;;;23.25;5.22;;;20.60;99.90;;;;;;5055272;28;20174;-80
2021/07/16 09:22:19;;;;;;;24.02;5.05;;;20.90;99.90;;;;;;5076990;28;20173;-79
2021/07/16 09:24:56;;;;;;;15.10;4.72;;;21.10;99.90;;;;;;5074988;28;20220;-80
2021/07/16 09:27:29;;;;;;;26.58;4.35;;;21.60;99.90;;;;;;5089741;28;20185;-80
2021/07/16 09:29:54;;;;;;;22.48;4.95;;;21.70;99.90;;;;;;5090157;28;20174;-84
2021/07/16 09:32:20;;;;;;;19.05;4.43;;;22.00;99.90;;;;;;5074656;28;20178;-81
2021/07/16 09:34:51;;;;;;;28.33;4.97;;;22.20;99.90;;;;;;5093382;28;20174;-80
2021/07/16 09:37:16;;;;;;;28.70;4.32;;;22.40;99.90;;;;;;5074910;28;20197;-81
2021/07/16 09:39:46;;;;;;;28.30;4.80;;;22.60;99.90;;;;;;5092201;28;20628;-80
2021/07/16 09:42:13;;;;;;;15.77;3.97;;;22.70;99.90;;;;;;5075425;28;20169;-80
2021/07/16 09:44:44;;;;;;;17.63;3.92;;;22.60;99.90;;;;;;5058656;28;20225;-81
2021/07/16 09:47:20;;;;;;;22.55;4.85;;;22.30;99.90;;;;;;5058887;28;20170;-81
2021/07/16 09:50:07;;;;;;;23.55;5.03;;;21.70;99.90;;;;;;5073489;28;20174;-80
2021/07/16 09:52:33;;;;;;;16.05;4.18;;;21.40;99.90;;;;;;5092246;28;20170;-81
2021/07/16 09:55:14;;;;;;;21.58;4.72;;;21.30;99.90;;;;;;5058543;28;20177;-81
2021/07/16 09:57:43;;;;;;;24.08;4.57;;;21.40;99.90;;;;;;5093017;28;20542;-80
2021/07/16 10:00:27;;;;;;;20.40;4.68;;;21.30;99.90;;;;;;5073055;28;20634;-80
2021/07/16 10:02:54;;;;;;;25.15;4.50;;;22.00;99.90;;;;;;5074094;28;20520;-80
2021/07/16 10:05:21;;;;;;;20.05;4.97;;;22.30;99.90;;;;;;5074468;28;20190;-82
2021/07/16 10:07:47;;;;;;;24.67;4.55;;;22.50;99.90;;;;;;5074938;28;20220;-81
2021/07/16 10:10:14;;;;;;;18.30;4.22;;;22.40;99.90;;;;;;5092658;28;20185;-80
2021/07/16 10:12:44;;;;;;;23.48;4.82;;;21.90;99.90;;;;;;5078447;28;20166;-80
2021/07/16 10:15:12;;;;;;;22.23;4.93;;;21.50;99.90;;;;;;5092143;28;20170;-80
2021/07/16 10:17:38;;;;;;;24.52;4.88;;;21.20;99.90;;;;;;5096343;28;20177;-80
2021/07/16 10:20:15;;;;;;;25.77;4.78;;;20.80;99.90;;;;;;5094281;28;20200;-80
2021/07/16 10:22:43;;;;;;;20.52;4.32;;;20.40;99.90;;;;;;5078327;28;20181;-80
2021/07/16 10:25:10;;;;;;;20.05;4.20;;;20.20;99.90;;;;;;5096149;28;20190;-84
2021/07/16 10:27:39;;;;;;;22.60;4.60;;;20.20;99.90;;;;;;5077265;28;20175;-81
2021/07/16 10:30:16;;;;;;;16.83;4.22;;;20.10;99.90;;;;;;5080862;28;20227;-81
2021/07/16 10:32:44;;;;;;;24.08;4.47;;;20.00;99.90;;;;;;5069235;28;20178;-85
2021/07/16 10:35:36;;;;;;;23.95;4.57;;;19.80;99.90;;;;;;5087037;28;20228;-80
2021/07/16 10:38:04;;;;;;;27.38;4.22;;;20.20;99.90;;;;;;5096909;28;20165;-80
2021/07/16 10:40:43;;;;;;;23.23;4.72;;;20.60;99.90;;;;;;5061595;28;20185;-81
2021/07/16 10:43:27;;;;;;;23.27;4.68;;;21.10;99.90;;;;;;5064374;28;20575;-81
2021/07/16 10:45:58;;;;;;;28.33;4.82;;;21.10;99.90;;;;;;5075771;28;20206;-79
2021/07/16 10:48:33;;;;;;;28.20;5.43;;;21.10;99.90;;;;;;5057426;28;20571;-81
2021/07/16 10:51:00;;;;;;;25.33;4.65;;;21.00;99.90;;;;;;5072356;28;20687;-81
2021/07/16 10:53:29;;;;;;;26.00;4.47;;;20.80;99.90;;;;;;5095149;28;20193;-81
2021/07/16 10:55:54;;;;;;;17.35;4.07;;;20.80;99.90;;;;;;5077384;28;20188;-80
2021/07/16 10:58:43;;;;;;;15.27;3.88;;;21.00;99.90;;;;;;5084789;28;20187;-77
2021/07/16 11:01:10;;;;;;;26.00;4.95;;;21.30;99.90;;;;;;5081672;28;20190;-80
2021/07/16 11:03:49;;;;;;;23.77;4.90;;;21.50;99.90;;;;;;5069303;28;20655;-81
2021/07/16 11:06:19;;;;;;;23.23;5.03;;;21.60;99.90;;;;;;5066461;28;20213;-81
2021/07/16 11:08:45;;;;;;;20.27;4.22;;;21.80;99.90;;;;;;5056984;28;20159;-81
2021/07/16 11:11:12;;;;;;;21.08;4.95;;;21.70;99.90;;;;;;5066165;28;20181;-81
2021/07/16 11:13:46;;;;;;;18.38;4.85;;;21.80;99.90;;;;;;5057393;28;20258;-81
2021/07/16 11:19:15;;;;;;;24.13;4.97;;;22.10;99.90;;;;;;5073281;28;20202;-81
2021/07/16 11:21:48;;;;;;;26.15;4.82;;;22.20;99.90;;;;;;5057251;28;20171;-80
2021/07/16 11:24:17;;;;;;;23.13;5.10;;;22.20;99.90;;;;;;5069788;28;20512;-81
2021/07/16 11:26:50;;;;;;;21.35;5.22;;;22.10;99.90;;;;;;5069046;28;20179;-80
2021/07/16 11:29:17;;;;;;;27.73;4.93;;;21.70;99.90;;;;;;5056843;28;20643;-81
2021/07/16 11:31:43;;;;;;;26.02;4.97;;;21.60;99.90;;;;;;5040804;28;20262;-81
2021/07/16 11:34:15;;;;;;;20.55;4.43;;;21.50;99.90;;;;;;5075354;28;20628;-81
2021/07/16 11:36:48;;;;;;;26.85;5.20;;;21.90;99.90;;;;;;5056153;28;20572;-81
2021/07/16 11:39:31;;;;;;;25.17;5.25;;;22.40;99.90;;;;;;5074675;28;20617;-82
2021/07/16 11:41:58;;;;;;;19.30;4.55;;;22.70;99.90;;;;;;5087912;28;20181;-82
2021/07/16 11:44:38;;;;;;;30.25;4.57;;;22.80;99.90;;;;;;5095527;28;20197;-85
2021/07/16 11:47:17;;;;;;;23.02;4.35;;;22.90;99.90;;;;;;5059140;28;20533;-79
2021/07/16 11:49:52;;;;;;;20.25;5.15;;;22.60;99.90;;;;;;5074619;28;20220;-80
2021/07/16 11:52:20;;;;;;;20.13;4.45;;;22.60;99.90;;;;;;5067851;28;20178;-81
2021/07/16 11:54:46;;;;;;;28.23;5.25;;;22.50;99.90;;;;;;5048302;28;20187;-79
2021/07/16 11:57:15;;;;;;;20.85;5.22;;;22.60;99.90;;;;;;5056558;28;20186;-78
2021/07/16 11:59:52;;;;;;;19.67;4.10;;;22.20;99.90;;;;;;5077279;28;20182;-79
2021/07/16 12:02:19;;;;;;;29.95;4.80;;;22.10;99.90;;;;;;5072971;28;20574;-78
2021/07/16 12:04:46;;;;;;;23.10;4.72;;;22.10;99.90;;;;;;5091251;28;20213;-78
2021/07/16 12:07:13;;;;;;;21.85;4.70;;;22.30;99.90;;;;;;5088063;28;20303;-87
2021/07/16 12:09:44;;;;;;;22.67;4.97;;;22.60;99.90;;;;;;5082320;28;20174;-85
2021/07/16 12:12:13;;;;;;;28.40;4.45;;;22.80;99.90;;;;;;5074924;28;20257;-84
2021/07/16 12:14:49;;;;;;;22.10;5.07;;;23.10;99.90;;;;;;5076111;28;20181;-86
2021/07/16 12:17:33;;;;;;;24.48;4.95;;;23.10;99.90;;;;;;5076371;28;20169;-86
2021/07/16 12:20:00;;;;;;;23.75;4.78;;;22.70;99.90;;;;;;5082412;28;20179;-85
2021/07/16 12:22:31;;;;;;;19.63;4.97;;;22.60;99.90;;;;;;5076891;28;20578;-85
2021/07/16 12:24:58;;;;;;;18.23;4.53;;;22.60;99.90;;;;;;5039896;28;20229;-87
2021/07/16 12:27:24;;;;;;;27.25;5.90;;;22.90;99.90;;;;;;5056052;28;20178;-86
2021/07/16 12:30:04;;;;;;;21.33;4.55;;;23.30;99.90;;;;;;5056981;28;20694;-87
2021/07/16 12:32:40;;;;;;;24.80;6.13;;;23.40;99.90;;;;;;5062967;28;20261;-86
2021/07/16 12:35:35;;;;;;;25.38;4.80;;;23.60;99.90;;;;;;5088177;28;20641;-86
2021/07/16 12:38:09;;;;;;;19.25;4.63;;;23.70;99.90;;;;;;5092030;28;20190;-86
2021/07/16 12:40:36;;;;;;;19.40;4.93;;;23.40;99.90;;;;;;5073044;28;20166;-85